AAL189 KBOS-KSEA
Flight info
| Callsign | AAL189 |
|---|---|
| Flight time | N/A |
| Altitude | 32000 |
| Route | HYLND7 HYLND SYR Q812 AHPAH/N0459F340 Q812 ZOHAN IYGUR KP06G KP12Y/N0463F360 GTF MLP GLASR3 |
| Aircraft | B738/M-SDE2E3FGHIRWXY/LB1 |
Departure
| Time | 2026-05-04 12:49 |
|---|---|
| Airport | Boston Logan International Airport (KBOS) |
Arrival
| Time | N/A |
|---|---|
| Airport | Seattle–Tacoma International Airport (KSEA) |
| Time | Latitude | Longitude | Altitude | Speed | Heading |
|---|---|---|---|---|---|
| 2026-05-04 12:19 | 42.36233 | -71.02430 | 27 ft | 0 kts | 274° |
| 2026-05-04 12:35 | 42.36233 | -71.02423 | 27 ft | 2 kts | 272° |
| 2026-05-04 12:36 | 42.36233 | -71.02396 | 27 ft | 3 kts | 261° |
| 2026-05-04 12:36 | 42.36238 | -71.02371 | 27 ft | 3 kts | 241° |
| 2026-05-04 12:36 | 42.36249 | -71.02352 | 27 ft | 3 kts | 205° |
| 2026-05-04 12:36 | 42.36259 | -71.02348 | 27 ft | 0 kts | 183° |
| 2026-05-04 12:38 | 42.36255 | -71.02348 | 27 ft | 1 kts | 182° |
| 2026-05-04 12:39 | 42.36242 | -71.02349 | 27 ft | 2 kts | 181° |
| 2026-05-04 12:39 | 42.36223 | -71.02350 | 27 ft | 3 kts | 182° |
| 2026-05-04 12:39 | 42.36189 | -71.02353 | 27 ft | 10 kts | 184° |
| 2026-05-04 12:39 | 42.36111 | -71.02350 | 27 ft | 10 kts | 167° |
| 2026-05-04 12:40 | 42.36063 | -71.02317 | 27 ft | 6 kts | 137° |
| 2026-05-04 12:40 | 42.36037 | -71.02267 | 27 ft | 9 kts | 121° |
| 2026-05-04 12:40 | 42.35995 | -71.02174 | 27 ft | 14 kts | 121° |
| 2026-05-04 12:40 | 42.35941 | -71.02049 | 27 ft | 14 kts | 121° |
| 2026-05-04 12:41 | 42.35899 | -71.01955 | 27 ft | 10 kts | 121° |
| 2026-05-04 12:41 | 42.35863 | -71.01863 | 27 ft | 12 kts | 110° |
| 2026-05-04 12:41 | 42.35840 | -71.01743 | 27 ft | 14 kts | 103° |
| 2026-05-04 12:41 | 42.35832 | -71.01698 | 27 ft | 15 kts | 105° |
| 2026-05-04 12:43 | 42.36273 | -71.01357 | 27 ft | 18 kts | 19° |
| 2026-05-04 12:43 | 42.36400 | -71.01296 | 27 ft | 20 kts | 19° |
| 2026-05-04 12:43 | 42.36539 | -71.01232 | 27 ft | 22 kts | 19° |
| 2026-05-04 12:43 | 42.36686 | -71.01162 | 27 ft | 23 kts | 17° |
| 2026-05-04 12:44 | 42.36821 | -71.01189 | 27 ft | 16 kts | 318° |
| 2026-05-04 12:44 | 42.36892 | -71.01220 | 27 ft | 12 kts | 34° |
| 2026-05-04 12:44 | 42.36964 | -71.01142 | 27 ft | 15 kts | 39° |
| 2026-05-04 12:44 | 42.37057 | -71.01059 | 27 ft | 17 kts | 25° |
| 2026-05-04 12:45 | 42.37172 | -71.00983 | 27 ft | 19 kts | 26° |
| 2026-05-04 12:45 | 42.37285 | -71.00911 | 27 ft | 17 kts | 24° |
| 2026-05-04 12:45 | 42.37389 | -71.00860 | 27 ft | 15 kts | 19° |
| 2026-05-04 12:45 | 42.37493 | -71.00810 | 27 ft | 17 kts | 20° |
| 2026-05-04 12:46 | 42.37611 | -71.00753 | 27 ft | 19 kts | 19° |
| 2026-05-04 12:46 | 42.37741 | -71.00691 | 27 ft | 20 kts | 19° |
| 2026-05-04 12:46 | 42.37843 | -71.00621 | 27 ft | 13 kts | 81° |
| 2026-05-04 12:46 | 42.37829 | -71.00536 | 27 ft | 6 kts | 109° |
| 2026-05-04 12:47 | 42.37823 | -71.00514 | 27 ft | 0 kts | 109° |
| 2026-05-04 12:47 | 42.37816 | -71.00484 | 27 ft | 8 kts | 109° |
| 2026-05-04 12:47 | 42.37789 | -71.00464 | 27 ft | 2 kts | 201° |
| 2026-05-04 12:47 | 42.37787 | -71.00465 | 27 ft | 1 kts | 201° |
| 2026-05-04 12:48 | 42.37694 | -71.00514 | 27 ft | 40 kts | 202° |
| 2026-05-04 12:48 | 42.37221 | -71.00748 | 27 ft | 103 kts | 200° |
| 2026-05-04 12:48 | 42.36359 | -71.01165 | 32 ft | 157 kts | 202° |
| 2026-05-04 12:48 | 42.35271 | -71.01697 | 538 ft | 167 kts | 201° |
| 2026-05-04 12:49 | 42.34137 | -71.01984 | 1358 ft | 171 kts | 179° |
| 2026-05-04 12:49 | 42.33002 | -71.01361 | 1954 ft | 187 kts | 144° |
| 2026-05-04 12:49 | 42.32178 | -70.99909 | 2445 ft | 205 kts | 124° |
| 2026-05-04 12:49 | 42.31491 | -70.98089 | 2714 ft | 230 kts | 115° |
| 2026-05-04 12:50 | 42.31264 | -70.95861 | 2992 ft | 253 kts | 90° |
| 2026-05-04 12:50 | 42.31479 | -70.93405 | 3400 ft | 268 kts | 83° |
| 2026-05-04 12:50 | 42.31833 | -70.90868 | 3927 ft | 282 kts | 79° |
| 2026-05-04 12:50 | 42.32252 | -70.88254 | 4454 ft | 293 kts | 78° |
| 2026-05-04 12:51 | 42.32678 | -70.85538 | 5141 ft | 298 kts | 78° |
| 2026-05-04 12:51 | 42.33101 | -70.82773 | 5842 ft | 302 kts | 78° |
| 2026-05-04 12:51 | 42.33523 | -70.79968 | 6550 ft | 306 kts | 77° |
| 2026-05-04 12:51 | 42.34106 | -70.77201 | 7246 ft | 306 kts | 62° |
| 2026-05-04 12:52 | 42.35341 | -70.74904 | 7944 ft | 300 kts | 38° |
| 2026-05-04 12:52 | 42.37075 | -70.73435 | 8636 ft | 290 kts | 14° |
| 2026-05-04 12:52 | 42.39015 | -70.72901 | 9337 ft | 283 kts | 0° |
| 2026-05-04 12:52 | 42.40957 | -70.72498 | 9983 ft | 290 kts | 6° |
| 2026-05-04 12:53 | 42.42944 | -70.71845 | 10569 ft | 295 kts | 2° |
| 2026-05-04 12:53 | 42.44978 | -70.71879 | 11011 ft | 292 kts | 341° |
| 2026-05-04 12:53 | 42.46940 | -70.72718 | 11307 ft | 303 kts | 334° |
| 2026-05-04 12:53 | 42.48970 | -70.73748 | 11554 ft | 318 kts | 331° |
| 2026-05-04 12:54 | 42.51033 | -70.75031 | 11780 ft | 332 kts | 326° |
| 2026-05-04 12:54 | 42.52932 | -70.76808 | 12001 ft | 341 kts | 314° |
| 2026-05-04 12:54 | 42.54558 | -70.79204 | 12220 ft | 350 kts | 304° |
| 2026-05-04 12:54 | 42.55989 | -70.81880 | 12905 ft | 349 kts | 301° |
| 2026-05-04 12:55 | 42.57342 | -70.84621 | 13555 ft | 350 kts | 300° |
| 2026-05-04 12:55 | 42.58678 | -70.87399 | 14135 ft | 353 kts | 300° |
| 2026-05-04 12:55 | 42.60028 | -70.90202 | 14691 ft | 356 kts | 300° |
| 2026-05-04 12:55 | 42.61407 | -70.93018 | 15209 ft | 360 kts | 301° |
| 2026-05-04 12:56 | 42.62800 | -70.95860 | 15756 ft | 362 kts | 301° |
| 2026-05-04 12:56 | 42.64186 | -70.98697 | 16284 ft | 365 kts | 301° |
| 2026-05-04 12:56 | 42.65593 | -71.01589 | 16796 ft | 368 kts | 301° |
| 2026-05-04 12:56 | 42.67006 | -71.04502 | 17304 ft | 370 kts | 301° |
| 2026-05-04 12:57 | 42.68432 | -71.07446 | 17797 ft | 373 kts | 301° |
| 2026-05-04 12:57 | 42.69863 | -71.10407 | 18281 ft | 376 kts | 301° |
| 2026-05-04 12:57 | 42.71299 | -71.13382 | 18765 ft | 377 kts | 301° |
| 2026-05-04 12:57 | 42.72743 | -71.16376 | 19247 ft | 380 kts | 301° |
| 2026-05-04 12:58 | 42.74201 | -71.19402 | 19663 ft | 383 kts | 301° |
| 2026-05-04 12:58 | 42.75666 | -71.22443 | 20113 ft | 385 kts | 301° |
| 2026-05-04 12:58 | 42.76952 | -71.25585 | 20535 ft | 386 kts | 292° |
| 2026-05-04 12:58 | 42.77851 | -71.29032 | 20939 ft | 387 kts | 284° |
| 2026-05-04 12:59 | 42.78423 | -71.32626 | 21364 ft | 388 kts | 280° |
| 2026-05-04 12:59 | 42.78865 | -71.36256 | 21758 ft | 391 kts | 278° |
| 2026-05-04 12:59 | 42.79248 | -71.39944 | 22137 ft | 393 kts | 277° |
| 2026-05-04 12:59 | 42.79619 | -71.43652 | 22540 ft | 395 kts | 277° |
| 2026-05-04 13:00 | 42.79986 | -71.47362 | 22901 ft | 397 kts | 277° |
| 2026-05-04 13:00 | 42.80352 | -71.51117 | 23215 ft | 400 kts | 277° |
| 2026-05-04 13:00 | 42.80715 | -71.54876 | 23597 ft | 401 kts | 277° |
| 2026-05-04 13:01 | 42.82176 | -71.70294 | 24938 ft | 409 kts | 277° |
| 2026-05-04 13:01 | 42.82538 | -71.74147 | 25233 ft | 411 kts | 277° |
| 2026-05-04 13:02 | 42.82921 | -71.78026 | 25524 ft | 413 kts | 277° |
| 2026-05-04 13:02 | 42.83297 | -71.81858 | 25808 ft | 415 kts | 277° |
| 2026-05-04 13:02 | 42.83676 | -71.85759 | 26125 ft | 415 kts | 277° |
| 2026-05-04 13:02 | 42.84051 | -71.89670 | 26432 ft | 416 kts | 277° |
| 2026-05-04 13:03 | 42.84421 | -71.93574 | 26824 ft | 415 kts | 277° |
| 2026-05-04 13:03 | 42.84788 | -71.97458 | 27230 ft | 413 kts | 277° |
| 2026-05-04 13:03 | 42.85151 | -72.01330 | 27628 ft | 411 kts | 277° |
| 2026-05-04 13:03 | 42.85512 | -72.05205 | 27937 ft | 412 kts | 277° |
| 2026-05-04 13:04 | 42.85870 | -72.09065 | 28332 ft | 410 kts | 277° |
| 2026-05-04 13:04 | 42.86226 | -72.12931 | 28680 ft | 409 kts | 277° |
| 2026-05-04 13:04 | 42.86574 | -72.16726 | 29012 ft | 408 kts | 277° |
| 2026-05-04 13:04 | 42.86917 | -72.20486 | 29346 ft | 407 kts | 277° |
| 2026-05-04 13:05 | 42.87264 | -72.24307 | 29728 ft | 405 kts | 277° |
| 2026-05-04 13:05 | 42.87609 | -72.28127 | 30043 ft | 404 kts | 277° |
| 2026-05-04 13:05 | 42.87836 | -72.30638 | 30235 ft | 404 kts | 277° |
| 2026-05-04 13:05 | 42.88293 | -72.35731 | 30614 ft | 404 kts | 277° |
| 2026-05-04 13:06 | 42.88519 | -72.38263 | 30800 ft | 404 kts | 277° |
| 2026-05-04 13:06 | 42.88858 | -72.42070 | 31076 ft | 404 kts | 277° |
| 2026-05-04 13:06 | 42.89196 | -72.45872 | 31348 ft | 404 kts | 277° |
| 2026-05-04 13:06 | 42.89531 | -72.49669 | 31667 ft | 402 kts | 276° |
| 2026-05-04 13:07 | 42.89866 | -72.53475 | 31906 ft | 403 kts | 276° |
| 2026-05-04 13:07 | 42.90199 | -72.57269 | 32125 ft | 404 kts | 276° |
| 2026-05-04 13:07 | 42.90526 | -72.61019 | 32386 ft | 404 kts | 276° |
| 2026-05-04 13:07 | 42.90858 | -72.64839 | 32638 ft | 403 kts | 276° |
| 2026-05-04 13:08 | 42.91187 | -72.68640 | 32883 ft | 403 kts | 276° |
| 2026-05-04 13:08 | 42.91516 | -72.72447 | 33125 ft | 403 kts | 276° |
| 2026-05-04 13:08 | 42.91843 | -72.76255 | 33362 ft | 403 kts | 276° |
| 2026-05-04 13:08 | 42.92165 | -72.80011 | 33594 ft | 403 kts | 276° |
| 2026-05-04 13:09 | 42.92489 | -72.83813 | 33824 ft | 403 kts | 276° |
| 2026-05-04 13:09 | 42.93137 | -72.91461 | 33879 ft | 405 kts | 276° |
| 2026-05-04 13:10 | 42.93777 | -72.99084 | 33882 ft | 403 kts | 276° |
| 2026-05-04 13:10 | 42.94413 | -73.06708 | 33886 ft | 404 kts | 276° |
| 2026-05-04 13:11 | 42.95039 | -73.14279 | 33887 ft | 404 kts | 276° |
| 2026-05-04 13:11 | 42.95665 | -73.21911 | 33890 ft | 404 kts | 276° |
| 2026-05-04 13:12 | 42.96284 | -73.29527 | 33889 ft | 403 kts | 276° |
| 2026-05-04 13:12 | 42.96900 | -73.37158 | 33888 ft | 403 kts | 276° |
| 2026-05-04 13:13 | 42.97506 | -73.44741 | 33887 ft | 403 kts | 276° |
| 2026-05-04 13:13 | 42.98111 | -73.52369 | 33886 ft | 403 kts | 276° |
| 2026-05-04 13:14 | 42.98710 | -73.59981 | 33885 ft | 403 kts | 276° |
| 2026-05-04 13:14 | 42.99301 | -73.67569 | 33885 ft | 403 kts | 276° |
| 2026-05-04 13:15 | 42.99892 | -73.75212 | 33883 ft | 403 kts | 276° |
| 2026-05-04 13:15 | 43.00477 | -73.82846 | 33885 ft | 403 kts | 276° |
| 2026-05-04 13:16 | 43.01053 | -73.90433 | 33888 ft | 403 kts | 276° |
| 2026-05-04 13:16 | 43.01628 | -73.98081 | 33885 ft | 403 kts | 276° |
| 2026-05-04 13:17 | 43.02193 | -74.05668 | 33886 ft | 403 kts | 276° |
| 2026-05-04 13:17 | 43.02736 | -74.13019 | 33884 ft | 404 kts | 276° |
| 2026-05-04 13:18 | 43.03293 | -74.20622 | 33881 ft | 404 kts | 276° |
| 2026-05-04 13:18 | 43.03848 | -74.28261 | 33881 ft | 403 kts | 276° |
| 2026-05-04 13:19 | 43.04398 | -74.35910 | 33881 ft | 403 kts | 276° |
| 2026-05-04 13:19 | 43.04938 | -74.43501 | 33879 ft | 403 kts | 276° |
| 2026-05-04 13:20 | 43.05478 | -74.51151 | 33878 ft | 403 kts | 276° |
| 2026-05-04 13:20 | 43.06012 | -74.58808 | 33877 ft | 403 kts | 276° |
| 2026-05-04 13:21 | 43.06541 | -74.66457 | 33877 ft | 404 kts | 276° |
| 2026-05-04 13:21 | 43.07062 | -74.74061 | 33876 ft | 403 kts | 276° |
| 2026-05-04 13:22 | 43.07581 | -74.81709 | 33875 ft | 404 kts | 276° |
| 2026-05-04 13:22 | 43.08096 | -74.89378 | 33875 ft | 404 kts | 276° |
| 2026-05-04 13:23 | 43.08599 | -74.96982 | 33875 ft | 404 kts | 276° |
| 2026-05-04 13:23 | 43.09103 | -75.04621 | 33874 ft | 404 kts | 276° |
| 2026-05-04 13:24 | 43.09603 | -75.12288 | 33873 ft | 404 kts | 276° |
| 2026-05-04 13:24 | 43.10097 | -75.19958 | 33871 ft | 404 kts | 276° |
| 2026-05-04 13:25 | 43.10825 | -75.31396 | 33870 ft | 403 kts | 276° |
| 2026-05-04 13:25 | 43.11307 | -75.39077 | 33870 ft | 403 kts | 276° |
| 2026-05-04 13:26 | 43.11779 | -75.46686 | 33869 ft | 404 kts | 277° |
| 2026-05-04 13:26 | 43.12250 | -75.54353 | 33870 ft | 404 kts | 276° |
| 2026-05-04 13:27 | 43.12717 | -75.62038 | 33866 ft | 404 kts | 277° |
| 2026-05-04 13:27 | 43.13176 | -75.69673 | 33862 ft | 404 kts | 277° |
| 2026-05-04 13:28 | 43.13636 | -75.77324 | 33857 ft | 403 kts | 277° |
| 2026-05-04 13:28 | 43.14109 | -75.84978 | 33852 ft | 403 kts | 277° |
| 2026-05-04 13:29 | 43.14556 | -75.92645 | 33847 ft | 403 kts | 277° |
| 2026-05-04 13:29 | 43.14986 | -76.00262 | 33842 ft | 403 kts | 276° |
| 2026-05-04 13:30 | 43.15410 | -76.07935 | 33841 ft | 403 kts | 277° |
| 2026-05-04 13:30 | 43.15850 | -76.15609 | 33839 ft | 402 kts | 279° |
| 2026-05-04 13:31 | 43.17060 | -76.23002 | 33841 ft | 400 kts | 290° |
| 2026-05-04 13:31 | 43.18992 | -76.30115 | 33840 ft | 399 kts | 292° |
| 2026-05-04 13:32 | 43.21035 | -76.37200 | 33841 ft | 399 kts | 292° |
| 2026-05-04 13:32 | 43.23073 | -76.44265 | 33840 ft | 398 kts | 292° |
| 2026-05-04 13:33 | 43.25111 | -76.51339 | 33838 ft | 398 kts | 292° |
| 2026-05-04 13:33 | 43.26803 | -76.57218 | 33837 ft | 398 kts | 292° |
| 2026-05-04 13:34 | 43.28647 | -76.65704 | 33835 ft | 401 kts | 280° |
| 2026-05-04 13:34 | 43.29061 | -76.73361 | 33832 ft | 403 kts | 275° |
| 2026-05-04 13:35 | 43.29309 | -76.84852 | 33826 ft | 403 kts | 274° |
| 2026-05-04 13:36 | 43.29432 | -76.92555 | 33823 ft | 403 kts | 274° |
| 2026-05-04 13:36 | 43.29536 | -77.00246 | 33821 ft | 403 kts | 274° |
| 2026-05-04 13:37 | 43.29627 | -77.07878 | 33821 ft | 403 kts | 274° |
| 2026-05-04 13:37 | 43.29731 | -77.15595 | 33820 ft | 403 kts | 274° |
| 2026-05-04 13:38 | 43.29842 | -77.23256 | 33820 ft | 403 kts | 274° |
| 2026-05-04 13:38 | 43.29937 | -77.30960 | 33820 ft | 402 kts | 274° |
| 2026-05-04 13:39 | 43.30019 | -77.38632 | 33819 ft | 402 kts | 274° |
| 2026-05-04 13:39 | 43.30095 | -77.46321 | 33819 ft | 402 kts | 274° |
| 2026-05-04 13:40 | 43.30163 | -77.53939 | 33817 ft | 402 kts | 274° |
| 2026-05-04 13:40 | 43.30224 | -77.61617 | 33816 ft | 402 kts | 274° |
| 2026-05-04 13:41 | 43.30284 | -77.69253 | 33816 ft | 402 kts | 274° |
| 2026-05-04 13:41 | 43.30361 | -77.76938 | 33814 ft | 402 kts | 274° |
| 2026-05-04 13:42 | 43.30425 | -77.88458 | 33812 ft | 402 kts | 274° |
| 2026-05-04 13:42 | 43.30453 | -77.96081 | 33810 ft | 402 kts | 274° |
| 2026-05-04 13:43 | 43.30475 | -78.03771 | 33809 ft | 401 kts | 274° |
| 2026-05-04 13:43 | 43.30497 | -78.11437 | 33808 ft | 401 kts | 274° |
| 2026-05-04 13:44 | 43.30375 | -78.19118 | 33805 ft | 402 kts | 272° |
| 2026-05-04 13:44 | 43.30159 | -78.26803 | 33803 ft | 402 kts | 272° |
| 2026-05-04 13:45 | 43.29947 | -78.34423 | 33802 ft | 402 kts | 272° |
| 2026-05-04 13:45 | 43.29731 | -78.42119 | 33800 ft | 403 kts | 272° |
| 2026-05-04 13:46 | 43.29523 | -78.49817 | 33798 ft | 402 kts | 272° |
| 2026-05-04 13:46 | 43.29359 | -78.57460 | 33797 ft | 402 kts | 272° |
| 2026-05-04 13:47 | 43.29155 | -78.65139 | 33794 ft | 403 kts | 272° |
| 2026-05-04 13:47 | 43.28931 | -78.72829 | 33794 ft | 402 kts | 272° |
| 2026-05-04 13:48 | 43.28697 | -78.80494 | 33797 ft | 403 kts | 272° |
| 2026-05-04 13:48 | 43.28459 | -78.88174 | 33797 ft | 403 kts | 272° |
| 2026-05-04 13:49 | 43.28272 | -78.95810 | 33793 ft | 402 kts | 274° |
| 2026-05-04 13:49 | 43.28357 | -79.03482 | 33783 ft | 402 kts | 275° |
| 2026-05-04 13:50 | 43.28564 | -79.11144 | 33773 ft | 398 kts | 283° |
| 2026-05-04 13:50 | 43.30058 | -79.18367 | 33774 ft | 395 kts | 291° |
| 2026-05-04 13:51 | 43.31859 | -79.25484 | 33769 ft | 393 kts | 291° |
| 2026-05-04 13:51 | 43.33622 | -79.32605 | 33768 ft | 394 kts | 291° |
| 2026-05-04 13:52 | 43.36210 | -79.43296 | 33764 ft | 394 kts | 291° |
| 2026-05-04 13:53 | 43.37921 | -79.50461 | 33761 ft | 393 kts | 291° |
| 2026-05-04 13:53 | 43.39622 | -79.57579 | 33760 ft | 393 kts | 291° |
| 2026-05-04 13:54 | 43.41914 | -79.67093 | 33759 ft | 394 kts | 291° |
| 2026-05-04 13:55 | 43.44469 | -79.77846 | 33758 ft | 393 kts | 291° |
| 2026-05-04 13:55 | 43.47001 | -79.88601 | 33759 ft | 393 kts | 291° |
| 2026-05-04 13:56 | 43.48669 | -79.95728 | 33758 ft | 393 kts | 291° |
| 2026-05-04 13:57 | 43.51179 | -80.06509 | 33759 ft | 393 kts | 291° |
| 2026-05-04 13:58 | 43.54490 | -80.20820 | 33759 ft | 393 kts | 291° |
| 2026-05-04 13:58 | 43.56968 | -80.31592 | 33760 ft | 394 kts | 291° |
| 2026-05-04 13:59 | 43.58619 | -80.38802 | 33759 ft | 393 kts | 290° |
| 2026-05-04 14:00 | 43.61072 | -80.49561 | 33758 ft | 393 kts | 290° |
| 2026-05-04 14:00 | 43.63534 | -80.60410 | 33757 ft | 393 kts | 290° |
| 2026-05-04 14:01 | 43.65126 | -80.67453 | 33756 ft | 394 kts | 290° |
| 2026-05-04 14:02 | 43.67569 | -80.78309 | 33754 ft | 394 kts | 290° |
| 2026-05-04 14:02 | 43.69191 | -80.85549 | 33754 ft | 394 kts | 290° |
| 2026-05-04 14:03 | 43.70796 | -80.92744 | 33753 ft | 394 kts | 290° |
| 2026-05-04 14:03 | 43.72416 | -81.00012 | 33751 ft | 394 kts | 290° |
| 2026-05-04 14:04 | 43.74833 | -81.10912 | 33744 ft | 395 kts | 289° |
| 2026-05-04 14:04 | 43.76428 | -81.18140 | 33733 ft | 395 kts | 289° |
| 2026-05-04 14:05 | 43.78827 | -81.29050 | 33719 ft | 395 kts | 289° |
| 2026-05-04 14:06 | 43.80422 | -81.36342 | 33716 ft | 395 kts | 289° |
| 2026-05-04 14:06 | 43.81997 | -81.43562 | 33714 ft | 394 kts | 289° |
| 2026-05-04 14:07 | 43.83581 | -81.50848 | 33711 ft | 395 kts | 289° |
| 2026-05-04 14:07 | 43.85160 | -81.58138 | 33708 ft | 394 kts | 289° |
| 2026-05-04 14:08 | 43.86736 | -81.65440 | 33706 ft | 394 kts | 289° |
| 2026-05-04 14:08 | 43.88293 | -81.72674 | 33703 ft | 394 kts | 289° |
| 2026-05-04 14:09 | 43.90662 | -81.83602 | 33699 ft | 394 kts | 289° |
| 2026-05-04 14:10 | 43.92988 | -81.94507 | 33686 ft | 394 kts | 289° |
| 2026-05-04 14:10 | 43.94526 | -82.01802 | 33679 ft | 394 kts | 288° |
| 2026-05-04 14:11 | 43.96064 | -82.09129 | 33670 ft | 394 kts | 288° |
| 2026-05-04 14:11 | 43.98182 | -82.20184 | 33663 ft | 396 kts | 284° |
| 2026-05-04 14:12 | 43.98558 | -82.27859 | 33662 ft | 401 kts | 272° |
| 2026-05-04 14:13 | 43.98187 | -82.39462 | 33658 ft | 402 kts | 272° |
| 2026-05-04 14:13 | 43.97981 | -82.47221 | 33655 ft | 402 kts | 272° |
| 2026-05-04 14:14 | 43.97799 | -82.54953 | 33652 ft | 403 kts | 272° |
| 2026-05-04 14:14 | 43.97545 | -82.66629 | 33646 ft | 402 kts | 272° |
| 2026-05-04 14:15 | 43.97286 | -82.82141 | 33642 ft | 402 kts | 272° |
| 2026-05-04 14:16 | 43.97073 | -82.93740 | 33647 ft | 402 kts | 272° |
| 2026-05-04 14:17 | 43.96842 | -83.05356 | 33657 ft | 401 kts | 272° |
| 2026-05-04 14:18 | 43.96595 | -83.17004 | 33661 ft | 401 kts | 272° |
| 2026-05-04 14:19 | 43.96249 | -83.32430 | 33660 ft | 400 kts | 272° |
| 2026-05-04 14:19 | 43.96068 | -83.40109 | 33657 ft | 400 kts | 271° |
| 2026-05-04 14:20 | 43.95881 | -83.47832 | 33659 ft | 399 kts | 271° |
| 2026-05-04 14:20 | 43.95690 | -83.55530 | 33654 ft | 399 kts | 271° |
| 2026-05-04 14:21 | 43.95395 | -83.67034 | 33653 ft | 398 kts | 271° |
| 2026-05-04 14:21 | 43.95190 | -83.74722 | 33654 ft | 398 kts | 271° |
| 2026-05-04 14:22 | 43.94982 | -83.82396 | 33657 ft | 397 kts | 271° |
| 2026-05-04 14:22 | 43.94768 | -83.90046 | 33656 ft | 397 kts | 271° |
| 2026-05-04 14:23 | 43.94470 | -84.01499 | 33651 ft | 397 kts | 271° |
| 2026-05-04 14:24 | 43.94248 | -84.09164 | 33644 ft | 397 kts | 271° |
| 2026-05-04 14:24 | 43.94009 | -84.16827 | 33644 ft | 397 kts | 271° |
| 2026-05-04 14:25 | 43.93761 | -84.24515 | 33641 ft | 397 kts | 271° |
| 2026-05-04 14:25 | 43.93570 | -84.35946 | 33634 ft | 396 kts | 278° |
| 2026-05-04 14:26 | 43.94796 | -84.43351 | 33631 ft | 393 kts | 289° |
| 2026-05-04 14:26 | 43.96580 | -84.50520 | 33631 ft | 392 kts | 290° |
| 2026-05-04 14:27 | 43.98410 | -84.57662 | 33630 ft | 393 kts | 290° |
| 2026-05-04 14:27 | 44.00255 | -84.64828 | 33631 ft | 394 kts | 291° |
| 2026-05-04 14:28 | 44.02096 | -84.71959 | 33628 ft | 390 kts | 290° |
| 2026-05-04 14:28 | 44.03928 | -84.79057 | 33622 ft | 390 kts | 290° |
| 2026-05-04 14:29 | 44.07630 | -84.93201 | 33617 ft | 390 kts | 291° |
| 2026-05-04 14:30 | 44.09490 | -85.00308 | 33615 ft | 390 kts | 290° |
| 2026-05-04 14:31 | 44.12251 | -85.10935 | 33614 ft | 390 kts | 290° |
| 2026-05-04 14:32 | 44.15920 | -85.25160 | 33607 ft | 390 kts | 290° |
| 2026-05-04 14:32 | 44.17739 | -85.32254 | 33604 ft | 390 kts | 290° |
| 2026-05-04 14:33 | 44.19562 | -85.39384 | 33602 ft | 390 kts | 290° |
| 2026-05-04 14:33 | 44.21383 | -85.46535 | 33600 ft | 391 kts | 290° |
| 2026-05-04 14:34 | 44.23192 | -85.53657 | 33600 ft | 391 kts | 290° |
| 2026-05-04 14:34 | 44.25003 | -85.60811 | 33600 ft | 391 kts | 290° |
| 2026-05-04 14:35 | 44.26815 | -85.67992 | 33600 ft | 391 kts | 290° |
| 2026-05-04 14:35 | 44.28614 | -85.75143 | 33587 ft | 391 kts | 290° |
| 2026-05-04 14:36 | 44.30412 | -85.82317 | 33580 ft | 391 kts | 290° |
| 2026-05-04 14:36 | 44.32200 | -85.89465 | 33576 ft | 391 kts | 290° |
| 2026-05-04 14:37 | 44.33995 | -85.96668 | 33574 ft | 391 kts | 290° |
| 2026-05-04 14:37 | 44.35786 | -86.03874 | 33573 ft | 391 kts | 290° |
| 2026-05-04 14:38 | 44.37559 | -86.11033 | 33573 ft | 391 kts | 290° |
| 2026-05-04 14:38 | 44.39039 | -86.17029 | 33573 ft | 391 kts | 290° |
| 2026-05-04 14:39 | 44.41100 | -86.25405 | 33573 ft | 391 kts | 290° |
| 2026-05-04 14:39 | 44.42867 | -86.32604 | 33570 ft | 390 kts | 290° |
| 2026-05-04 14:40 | 44.45207 | -86.42178 | 33566 ft | 390 kts | 289° |
| 2026-05-04 14:40 | 44.46962 | -86.49382 | 33561 ft | 389 kts | 289° |
| 2026-05-04 14:41 | 44.48699 | -86.56537 | 33558 ft | 389 kts | 289° |
| 2026-05-04 14:42 | 44.52157 | -86.70856 | 33552 ft | 388 kts | 289° |
| 2026-05-04 14:42 | 44.53885 | -86.78040 | 33548 ft | 388 kts | 289° |
| 2026-05-04 14:43 | 44.55607 | -86.85227 | 33543 ft | 387 kts | 289° |
| 2026-05-04 14:43 | 44.57320 | -86.92394 | 33537 ft | 387 kts | 289° |
| 2026-05-04 14:44 | 44.59017 | -86.99519 | 33531 ft | 387 kts | 289° |
| 2026-05-04 14:44 | 44.60723 | -87.06704 | 33525 ft | 387 kts | 288° |
| 2026-05-04 14:45 | 44.62420 | -87.13875 | 33518 ft | 386 kts | 288° |
| 2026-05-04 14:45 | 44.64115 | -87.21059 | 33511 ft | 387 kts | 288° |
| 2026-05-04 14:46 | 44.65791 | -87.28188 | 33501 ft | 387 kts | 288° |
| 2026-05-04 14:46 | 44.67475 | -87.35377 | 33496 ft | 387 kts | 288° |
| 2026-05-04 14:47 | 44.69153 | -87.42559 | 33495 ft | 387 kts | 288° |
| 2026-05-04 14:47 | 44.70817 | -87.49709 | 33490 ft | 387 kts | 288° |
| 2026-05-04 14:48 | 44.72486 | -87.56901 | 33488 ft | 387 kts | 288° |
| 2026-05-04 14:48 | 44.74152 | -87.64101 | 33483 ft | 387 kts | 288° |
| 2026-05-04 14:49 | 44.75814 | -87.71310 | 33480 ft | 387 kts | 288° |
| 2026-05-04 14:49 | 44.77464 | -87.78502 | 33474 ft | 386 kts | 288° |
| 2026-05-04 14:50 | 44.79105 | -87.85661 | 33465 ft | 386 kts | 288° |
| 2026-05-04 14:50 | 44.80747 | -87.92855 | 33462 ft | 386 kts | 288° |
| 2026-05-04 14:51 | 44.82391 | -88.00080 | 33462 ft | 386 kts | 288° |
| 2026-05-04 14:51 | 44.84015 | -88.07248 | 33463 ft | 385 kts | 287° |
| 2026-05-04 14:52 | 44.85644 | -88.14452 | 33466 ft | 385 kts | 287° |
| 2026-05-04 14:52 | 44.87263 | -88.21636 | 33465 ft | 384 kts | 287° |
| 2026-05-04 14:53 | 44.88874 | -88.28818 | 33459 ft | 384 kts | 287° |
| 2026-05-04 14:53 | 44.90470 | -88.35955 | 33456 ft | 383 kts | 287° |
| 2026-05-04 14:54 | 44.92072 | -88.43132 | 33449 ft | 383 kts | 287° |
| 2026-05-04 14:54 | 44.93669 | -88.50321 | 33452 ft | 383 kts | 287° |
| 2026-05-04 14:55 | 44.95250 | -88.57456 | 33451 ft | 383 kts | 287° |
| 2026-05-04 14:55 | 44.96841 | -88.64626 | 33450 ft | 382 kts | 287° |
| 2026-05-04 14:56 | 44.98445 | -88.71805 | 33449 ft | 382 kts | 287° |
| 2026-05-04 14:56 | 45.00013 | -88.78948 | 33444 ft | 382 kts | 286° |
| 2026-05-04 14:57 | 45.01573 | -88.86125 | 33441 ft | 382 kts | 286° |
| 2026-05-04 14:57 | 45.03129 | -88.93318 | 33437 ft | 381 kts | 286° |
| 2026-05-04 14:58 | 45.04680 | -89.00508 | 33433 ft | 381 kts | 286° |
| 2026-05-04 14:58 | 45.06220 | -89.07655 | 33432 ft | 381 kts | 286° |
| 2026-05-04 14:59 | 45.07760 | -89.14841 | 33432 ft | 381 kts | 286° |
| 2026-05-04 15:00 | 45.10051 | -89.25616 | 33432 ft | 381 kts | 285° |
| 2026-05-04 15:00 | 45.10555 | -89.27996 | 33433 ft | 381 kts | 285° |